sensor_id;sensor_type;location;lat;lon;timestamp;pressure;altitude;pressure_sealevel;temperature;humidity
20909;BME280;10614;53.198;6.570;2022-08-06T00:00:15;102493.28;;;15.21;78.94
20909;BME280;10614;53.198;6.570;2022-08-06T00:02:17;102489.81;;;15.19;78.92
20909;BME280;10614;53.198;6.570;2022-08-06T00:04:21;102494.38;;;15.15;79.18
20909;BME280;10614;53.198;6.570;2022-08-06T00:06:24;102494.44;;;15.12;78.81
20909;BME280;10614;53.198;6.570;2022-08-06T00:08:26;102494.38;;;15.15;79.11
20909;BME280;10614;53.198;6.570;2022-08-06T00:10:28;102493.50;;;15.15;79.64
20909;BME280;10614;53.198;6.570;2022-08-06T00:12:30;102497.03;;;15.15;79.61
20909;BME280;10614;53.198;6.570;2022-08-06T00:14:31;102501.50;;;15.13;79.37
20909;BME280;10614;53.198;6.570;2022-08-06T00:16:33;102498.06;;;15.10;80.01
20909;BME280;10614;53.198;6.570;2022-08-06T00:18:34;102498.97;;;15.10;79.67
20909;BME280;10614;53.198;6.570;2022-08-06T00:20:36;102507.00;;;15.07;80.22
20909;BME280;10614;53.198;6.570;2022-08-06T00:22:39;102507.97;;;15.05;79.83
20909;BME280;10614;53.198;6.570;2022-08-06T00:24:40;102505.31;;;15.05;80.03
20909;BME280;10614;53.198;6.570;2022-08-06T00:26:42;102500.94;;;15.04;80.06
20909;BME280;10614;53.198;6.570;2022-08-06T00:28:44;102500.97;;;15.02;80.18
20909;BME280;10614;53.198;6.570;2022-08-06T00:30:45;102510.69;;;15.03;80.28
20909;BME280;10614;53.198;6.570;2022-08-06T00:32:47;102512.56;;;14.99;80.10
20909;BME280;10614;53.198;6.570;2022-08-06T00:34:48;102510.88;;;14.97;80.93
20909;BME280;10614;53.198;6.570;2022-08-06T00:36:50;102510.00;;;14.96;81.21
20909;BME280;10614;53.198;6.570;2022-08-06T00:38:53;102512.75;;;14.93;80.93
20909;BME280;10614;53.198;6.570;2022-08-06T00:40:54;102509.31;;;14.91;80.42
20909;BME280;10614;53.198;6.570;2022-08-06T00:42:56;102514.59;;;14.91;81.16
20909;BME280;10614;53.198;6.570;2022-08-06T00:44:58;102510.19;;;14.90;80.57
20909;BME280;10614;53.198;6.570;2022-08-06T00:47:01;102513.78;;;14.89;80.72
20909;BME280;10614;53.198;6.570;2022-08-06T00:49:02;102510.31;;;14.87;81.04
20909;BME280;10614;53.198;6.570;2022-08-06T00:51:04;102514.75;;;14.87;80.83
20909;BME280;10614;53.198;6.570;2022-08-06T00:53:05;102522.69;;;14.87;80.91
20909;BME280;10614;53.198;6.570;2022-08-06T00:55:08;102516.47;;;14.88;81.27
20909;BME280;10614;53.198;6.570;2022-08-06T00:57:10;102519.16;;;14.86;81.25
20909;BME280;10614;53.198;6.570;2022-08-06T00:59:11;102535.13;;;14.85;80.99
20909;BME280;10614;53.198;6.570;2022-08-06T01:01:13;102524.59;;;14.82;81.42
20909;BME280;10614;53.198;6.570;2022-08-06T01:03:14;102532.63;;;14.80;82.11
20909;BME280;10614;53.198;6.570;2022-08-06T01:05:16;102535.41;;;14.75;81.84
20909;BME280;10614;53.198;6.570;2022-08-06T01:07:18;102539.06;;;14.71;81.83
20909;BME280;10614;53.198;6.570;2022-08-06T01:09:19;102536.50;;;14.68;81.90
20909;BME280;10614;53.198;6.570;2022-08-06T01:11:22;102541.84;;;14.67;82.23
20909;BME280;10614;53.198;6.570;2022-08-06T01:13:23;102545.44;;;14.66;82.29
20909;BME280;10614;53.198;6.570;2022-08-06T01:15:25;102542.81;;;14.64;82.59
20909;BME280;10614;53.198;6.570;2022-08-06T01:17:28;102547.28;;;14.62;82.49
20909;BME280;10614;53.198;6.570;2022-08-06T01:19:41;102542.09;;;14.59;83.34
20909;BME280;10614;53.198;6.570;2022-08-06T01:21:47;102551.00;;;14.56;82.98
20909;BME280;10614;53.198;6.570;2022-08-06T01:23:55;102546.66;;;14.54;83.43
20909;BME280;10614;53.198;6.570;2022-08-06T01:28:25;102560.00;;;14.49;83.28
20909;BME280;10614;53.198;6.570;2022-08-06T01:30:28;102561.75;;;14.49;83.77
20909;BME280;10614;53.198;6.570;2022-08-06T01:32:31;102560.91;;;14.48;83.50
20909;BME280;10614;53.198;6.570;2022-08-06T01:34:35;102562.72;;;14.46;83.53
20909;BME280;10614;53.198;6.570;2022-08-06T01:36:39;102567.25;;;14.43;83.86
20909;BME280;10614;53.198;6.570;2022-08-06T01:38:43;102568.16;;;14.42;83.87
20909;BME280;10614;53.198;6.570;2022-08-06T01:40:46;102570.03;;;14.38;84.21
20909;BME280;10614;53.198;6.570;2022-08-06T01:42:48;102568.38;;;14.34;84.73
20909;BME280;10614;53.198;6.570;2022-08-06T01:44:52;102567.59;;;14.30;85.03
20909;BME280;10614;53.198;6.570;2022-08-06T01:46:57;102573.91;;;14.26;85.16
20909;BME280;10614;53.198;6.570;2022-08-06T01:48:59;102566.91;;;14.24;85.80
20909;BME280;10614;53.198;6.570;2022-08-06T01:51:02;102568.75;;;14.22;85.83
20909;BME280;10614;53.198;6.570;2022-08-06T01:53:06;102572.28;;;14.21;86.06
20909;BME280;10614;53.198;6.570;2022-08-06T01:55:08;102574.06;;;14.20;86.09
20909;BME280;10614;53.198;6.570;2022-08-06T01:57:10;102569.72;;;14.18;86.09
20909;BME280;10614;53.198;6.570;2022-08-06T01:59:12;102566.22;;;14.17;86.32
20909;BME280;10614;53.198;6.570;2022-08-06T02:01:17;102568.91;;;14.15;86.38
20909;BME280;10614;53.198;6.570;2022-08-06T02:03:21;102565.41;;;14.13;86.70
20909;BME280;10614;53.198;6.570;2022-08-06T02:05:24;102561.03;;;14.12;86.85
20909;BME280;10614;53.198;6.570;2022-08-06T02:07:27;102574.28;;;14.12;86.61
20909;BME280;10614;53.198;6.570;2022-08-06T02:09:31;102567.19;;;14.13;86.69
20909;BME280;10614;53.198;6.570;2022-08-06T02:11:34;102574.28;;;14.12;86.76
20909;BME280;10614;53.198;6.570;2022-08-06T02:13:36;102580.47;;;14.11;87.08
20909;BME280;10614;53.198;6.570;2022-08-06T02:15:38;102579.69;;;14.08;87.18
20909;BME280;10614;53.198;6.570;2022-08-06T02:17:41;102576.13;;;14.09;86.86
20909;BME280;10614;53.198;6.570;2022-08-06T02:19:44;102585.00;;;14.08;87.08
20909;BME280;10614;53.198;6.570;2022-08-06T02:21:47;102577.03;;;14.09;87.13
20909;BME280;10614;53.198;6.570;2022-08-06T02:23:49;102582.34;;;14.08;87.16
20909;BME280;10614;53.198;6.570;2022-08-06T02:25:53;102581.53;;;14.06;87.33
20909;BME280;10614;53.198;6.570;2022-08-06T02:27:56;102579.84;;;14.02;87.28
20909;BME280;10614;53.198;6.570;2022-08-06T02:29:58;102596.66;;;14.01;87.62
20909;BME280;10614;53.198;6.570;2022-08-06T02:32:01;102589.63;;;14.00;87.76
20909;BME280;10614;53.198;6.570;2022-08-06T02:34:04;102598.50;;;13.97;87.76
20909;BME280;10614;53.198;6.570;2022-08-06T02:36:08;102593.28;;;13.96;87.80
20909;BME280;10614;53.198;6.570;2022-08-06T02:38:16;102596.91;;;13.91;88.08
20909;BME280;10614;53.198;6.570;2022-08-06T02:40:19;102597.03;;;13.87;88.27
20909;BME280;10614;53.198;6.570;2022-08-06T02:42:23;102604.97;;;13.87;88.83
20909;BME280;10614;53.198;6.570;2022-08-06T02:44:32;102603.28;;;13.83;88.62
20909;BME280;10614;53.198;6.570;2022-08-06T02:46:37;102596.31;;;13.80;88.72
20909;BME280;10614;53.198;6.570;2022-08-06T02:48:42;102602.56;;;13.78;88.79
20909;BME280;10614;53.198;6.570;2022-08-06T02:50:46;102595.47;;;13.78;88.90
20909;BME280;10614;53.198;6.570;2022-08-06T02:52:53;102604.25;;;13.80;88.62
20909;BME280;10614;53.198;6.570;2022-08-06T02:54:56;102601.69;;;13.77;88.83
20909;BME280;10614;53.198;6.570;2022-08-06T02:56:58;102605.28;;;13.75;88.98
20909;BME280;10614;53.198;6.570;2022-08-06T02:59:01;102601.84;;;13.71;88.96
20909;BME280;10614;53.198;6.570;2022-08-06T03:01:05;102608.03;;;13.70;89.26
20909;BME280;10614;53.198;6.570;2022-08-06T03:03:08;102607.16;;;13.69;88.89
20909;BME280;10614;53.198;6.570;2022-08-06T03:05:10;102614.28;;;13.67;89.02
20909;BME280;10614;53.198;6.570;2022-08-06T03:07:15;102602.88;;;13.65;89.14
20909;BME280;10614;53.198;6.570;2022-08-06T03:09:18;102615.28;;;13.62;89.20
20909;BME280;10614;53.198;6.570;2022-08-06T03:11:20;102610.94;;;13.59;89.21
20909;BME280;10614;53.198;6.570;2022-08-06T03:13:23;102616.25;;;13.58;89.43
20909;BME280;10614;53.198;6.570;2022-08-06T03:15:25;102616.31;;;13.56;89.29
20909;BME280;10614;53.198;6.570;2022-08-06T03:17:26;102614.56;;;13.55;89.26
20909;BME280;10614;53.198;6.570;2022-08-06T03:19:28;102615.47;;;13.54;88.92
20909;BME280;10614;53.198;6.570;2022-08-06T03:21:31;102620.81;;;13.52;89.54
20909;BME280;10614;53.198;6.570;2022-08-06T03:23:35;102619.94;;;13.52;89.56
20909;BME280;10614;53.198;6.570;2022-08-06T03:25:39;102617.38;;;13.49;89.91
20909;BME280;10614;53.198;6.570;2022-08-06T03:27:40;102624.47;;;13.47;89.90
20909;BME280;10614;53.198;6.570;2022-08-06T03:29:42;102619.25;;;13.44;89.71
20909;BME280;10614;53.198;6.570;2022-08-06T03:31:44;102619.31;;;13.41;89.79
20909;BME280;10614;53.198;6.570;2022-08-06T03:33:46;102619.38;;;13.39;89.80
20909;BME280;10614;53.198;6.570;2022-08-06T03:35:48;102617.69;;;13.35;89.64
20909;BME280;10614;53.198;6.570;2022-08-06T03:37:51;102616.03;;;13.29;89.71
20909;BME280;10614;53.198;6.570;2022-08-06T03:39:56;102609.03;;;13.28;89.56
20909;BME280;10614;53.198;6.570;2022-08-06T03:42:00;102618.69;;;13.29;89.65
20909;BME280;10614;53.198;6.570;2022-08-06T03:44:02;102615.25;;;13.27;89.76
20909;BME280;10614;53.198;6.570;2022-08-06T03:46:05;102608.19;;;13.25;90.04
20909;BME280;10614;53.198;6.570;2022-08-06T03:48:06;102612.66;;;13.23;89.79
20909;BME280;10614;53.198;6.570;2022-08-06T03:50:09;102615.34;;;13.20;89.88
20909;BME280;10614;53.198;6.570;2022-08-06T03:52:12;102624.22;;;13.17;89.96
20909;BME280;10614;53.198;6.570;2022-08-06T03:54:17;102619.91;;;13.13;90.33
20909;BME280;10614;53.198;6.570;2022-08-06T03:56:22;102622.63;;;13.10;90.01
20909;BME280;10614;53.198;6.570;2022-08-06T03:58:24;102624.44;;;13.08;90.09
20909;BME280;10614;53.198;6.570;2022-08-06T04:00:27;102628.94;;;13.04;89.93
20909;BME280;10614;53.198;6.570;2022-08-06T04:02:32;102627.22;;;13.02;90.06
20909;BME280;10614;53.198;6.570;2022-08-06T04:04:34;102630.78;;;12.99;90.46
20909;BME280;10614;53.198;6.570;2022-08-06T04:06:36;102631.69;;;12.98;90.25
20909;BME280;10614;53.198;6.570;2022-08-06T04:08:38;102642.34;;;12.95;90.89
20909;BME280;10614;53.198;6.570;2022-08-06T04:10:42;102638.88;;;12.93;90.45
20909;BME280;10614;53.198;6.570;2022-08-06T04:12:45;102638.88;;;12.93;90.85
20909;BME280;10614;53.198;6.570;2022-08-06T04:14:47;102630.13;;;12.89;90.67
20909;BME280;10614;53.198;6.570;2022-08-06T04:16:48;102637.19;;;12.89;91.28
20909;BME280;10614;53.198;6.570;2022-08-06T04:18:50;102645.97;;;12.89;91.37
20909;BME280;10614;53.198;6.570;2022-08-06T04:20:56;102646.88;;;12.90;91.11
20909;BME280;10614;53.198;6.570;2022-08-06T04:22:58;102646.88;;;12.90;91.61
20909;BME280;10614;53.198;6.570;2022-08-06T04:25:00;102646.03;;;12.88;91.56
20909;BME280;10614;53.198;6.570;2022-08-06T04:27:02;102652.09;;;12.92;91.23
20909;BME280;10614;53.198;6.570;2022-08-06T04:29:07;102648.59;;;12.91;91.43
20909;BME280;10614;53.198;6.570;2022-08-06T04:31:10;102657.38;;;12.93;92.08
20909;BME280;10614;53.198;6.570;2022-08-06T04:33:12;102659.91;;;12.98;91.64
20909;BME280;10614;53.198;6.570;2022-08-06T04:35:14;102665.09;;;13.02;91.54
20909;BME280;10614;53.198;6.570;2022-08-06T04:37:16;102672.03;;;13.08;91.89
20909;BME280;10614;53.198;6.570;2022-08-06T04:39:18;102674.66;;;13.09;91.77
20909;BME280;10614;53.198;6.570;2022-08-06T04:41:21;102676.38;;;13.10;91.98
20909;BME280;10614;53.198;6.570;2022-08-06T04:43:23;102678.13;;;13.12;92.11
20909;BME280;10614;53.198;6.570;2022-08-06T04:45:26;102672.75;;;13.16;91.92
20909;BME280;10614;53.198;6.570;2022-08-06T04:47:29;102677.03;;;13.20;91.90
20909;BME280;10614;53.198;6.570;2022-08-06T04:49:31;102674.53;;;13.14;92.09
20909;BME280;10614;53.198;6.570;2022-08-06T04:51:32;102677.38;;;13.05;92.19
20909;BME280;10614;53.198;6.570;2022-08-06T04:53:35;102678.34;;;13.01;93.02
20909;BME280;10614;53.198;6.570;2022-08-06T04:55:37;102680.97;;;13.01;93.06
20909;BME280;10614;53.198;6.570;2022-08-06T04:57:39;102678.31;;;13.02;93.12
20909;BME280;10614;53.198;6.570;2022-08-06T04:59:40;102685.31;;;13.05;92.71
20909;BME280;10614;53.198;6.570;2022-08-06T05:01:43;102688.03;;;13.02;93.24
20909;BME280;10614;53.198;6.570;2022-08-06T05:03:44;102688.84;;;13.04;93.73
20909;BME280;10614;53.198;6.570;2022-08-06T05:05:48;102692.38;;;13.04;94.24
20909;BME280;10614;53.198;6.570;2022-08-06T05:07:52;102693.28;;;13.03;94.66
20909;BME280;10614;53.198;6.570;2022-08-06T05:09:54;102690.69;;;13.02;95.22
20909;BME280;10614;53.198;6.570;2022-08-06T05:11:59;102694.22;;;13.01;95.64
20909;BME280;10614;53.198;6.570;2022-08-06T05:14:01;102700.34;;;13.01;96.42
20909;BME280;10614;53.198;6.570;2022-08-06T05:16:04;102697.66;;;13.04;96.91
20909;BME280;10614;53.198;6.570;2022-08-06T05:18:08;102709.97;;;13.05;97.68
20909;BME280;10614;53.198;6.570;2022-08-06T05:20:11;102702.91;;;13.06;98.34
20909;BME280;10614;53.198;6.570;2022-08-06T05:22:15;102709.94;;;13.07;98.46
20909;BME280;10614;53.198;6.570;2022-08-06T05:24:17;102715.25;;;13.07;98.97
20909;BME280;10614;53.198;6.570;2022-08-06T05:26:19;102724.91;;;13.08;99.16
20909;BME280;10614;53.198;6.570;2022-08-06T05:28:21;102720.47;;;13.08;98.88
20909;BME280;10614;53.198;6.570;2022-08-06T05:30:22;102722.25;;;13.08;99.27
20909;BME280;10614;53.198;6.570;2022-08-06T05:32:23;102728.47;;;13.07;99.39
20909;BME280;10614;53.198;6.570;2022-08-06T05:34:26;102727.53;;;13.08;99.10
20909;BME280;10614;53.198;6.570;2022-08-06T05:36:28;102736.34;;;13.08;99.19
20909;BME280;10614;53.198;6.570;2022-08-06T05:38:30;102725.75;;;13.08;99.05
20909;BME280;10614;53.198;6.570;2022-08-06T05:40:32;102727.53;;;13.09;99.11
20909;BME280;10614;53.198;6.570;2022-08-06T05:42:36;102732.78;;;13.11;99.10
20909;BME280;10614;53.198;6.570;2022-08-06T05:44:38;102725.72;;;13.12;99.02
20909;BME280;10614;53.198;6.570;2022-08-06T05:46:40;102735.31;;;13.16;99.36
20909;BME280;10614;53.198;6.570;2022-08-06T05:48:43;102729.97;;;13.19;99.20
20909;BME280;10614;53.198;6.570;2022-08-06T05:50:49;102724.63;;;13.20;99.34
20909;BME280;10614;53.198;6.570;2022-08-06T05:52:53;102725.47;;;13.24;99.13
20909;BME280;10614;53.198;6.570;2022-08-06T05:54:58;102731.63;;;13.24;99.58
20909;BME280;10614;53.198;6.570;2022-08-06T05:57:03;102728.88;;;13.30;99.50
20909;BME280;10614;53.198;6.570;2022-08-06T05:59:06;102731.53;;;13.30;99.19
20909;BME280;10614;53.198;6.570;2022-08-06T06:01:09;102727.97;;;13.32;99.19
20909;BME280;10614;53.198;6.570;2022-08-06T06:03:12;102732.31;;;13.34;99.41
20909;BME280;10614;53.198;6.570;2022-08-06T06:05:15;102743.75;;;13.36;99.36
20909;BME280;10614;53.198;6.570;2022-08-06T06:07:18;102746.38;;;13.36;98.63
20909;BME280;10614;53.198;6.570;2022-08-06T06:09:20;102742.03;;;13.34;97.72
20909;BME280;10614;53.198;6.570;2022-08-06T06:11:22;102745.63;;;13.31;98.10
20909;BME280;10614;53.198;6.570;2022-08-06T06:13:24;102735.91;;;13.32;98.12
20909;BME280;10614;53.198;6.570;2022-08-06T06:15:26;102733.22;;;13.33;98.54
20909;BME280;10614;53.198;6.570;2022-08-06T06:17:35;102746.47;;;13.33;98.45
20909;BME280;10614;53.198;6.570;2022-08-06T06:19:39;102743.81;;;13.33;98.83
20909;BME280;10614;53.198;6.570;2022-08-06T06:21:45;102744.66;;;13.35;98.67
20909;BME280;10614;53.198;6.570;2022-08-06T06:23:52;102737.56;;;13.37;98.67
20909;BME280;10614;53.198;6.570;2022-08-06T06:25:57;102743.63;;;13.41;99.06
20909;BME280;10614;53.198;6.570;2022-08-06T06:28:03;102742.69;;;13.43;99.12
20909;BME280;10614;53.198;6.570;2022-08-06T06:30:08;102744.38;;;13.47;99.15
20909;BME280;10614;53.198;6.570;2022-08-06T06:32:13;102745.16;;;13.52;98.77
20909;BME280;10614;53.198;6.570;2022-08-06T06:34:17;102743.25;;;13.58;98.69
20909;BME280;10614;53.198;6.570;2022-08-06T06:36:23;102753.72;;;13.64;98.67
20909;BME280;10614;53.198;6.570;2022-08-06T06:38:30;102741.25;;;13.69;98.60
20909;BME280;10614;53.198;6.570;2022-08-06T06:40:38;102755.22;;;13.76;98.21
20909;BME280;10614;53.198;6.570;2022-08-06T06:42:46;102753.34;;;13.81;98.65
20909;BME280;10614;53.198;6.570;2022-08-06T06:44:50;102753.22;;;13.87;98.52
20909;BME280;10614;53.198;6.570;2022-08-06T06:46:54;102754.81;;;13.92;98.41
20909;BME280;10614;53.198;6.570;2022-08-06T06:49:00;102763.50;;;13.99;98.48
20909;BME280;10614;53.198;6.570;2022-08-06T06:51:02;102759.88;;;14.03;98.90
20909;BME280;10614;53.198;6.570;2022-08-06T06:53:05;102763.28;;;14.08;98.81
20909;BME280;10614;53.198;6.570;2022-08-06T06:55:09;102767.53;;;14.14;98.55
20909;BME280;10614;53.198;6.570;2022-08-06T06:57:15;102772.78;;;14.17;99.00
20909;BME280;10614;53.198;6.570;2022-08-06T06:59:20;102766.66;;;14.15;99.79
20909;BME280;10614;53.198;6.570;2022-08-06T07:01:23;102767.44;;;14.19;100.00
20909;BME280;10614;53.198;6.570;2022-08-06T07:03:25;102772.69;;;14.22;100.00
20909;BME280;10614;53.198;6.570;2022-08-06T07:05:29;102769.06;;;14.26;100.00
20909;BME280;10614;53.198;6.570;2022-08-06T07:07:32;102766.25;;;14.30;100.00
20909;BME280;10614;53.198;6.570;2022-08-06T07:09:34;102760.94;;;14.32;100.00
20909;BME280;10614;53.198;6.570;2022-08-06T07:11:37;102763.50;;;14.35;100.00
20909;BME280;10614;53.198;6.570;2022-08-06T07:13:41;102767.81;;;14.39;100.00
20909;BME280;10614;53.198;6.570;2022-08-06T07:15:44;102761.50;;;14.45;100.00
20909;BME280;10614;53.198;6.570;2022-08-06T07:17:46;102772.78;;;14.51;100.00
20909;BME280;10614;53.198;6.570;2022-08-06T07:19:49;102765.69;;;14.55;100.00
20909;BME280;10614;53.198;6.570;2022-08-06T07:21:51;102769.09;;;14.60;100.00
20909;BME280;10614;53.198;6.570;2022-08-06T07:23:53;102776.06;;;14.64;100.00
20909;BME280;10614;53.198;6.570;2022-08-06T07:25:55;102770.63;;;14.69;100.00
20909;BME280;10614;53.198;6.570;2022-08-06T07:27:57;102779.28;;;14.75;100.00
20909;BME280;10614;53.198;6.570;2022-08-06T07:29:59;102777.41;;;14.79;100.00
20909;BME280;10614;53.198;6.570;2022-08-06T07:32:02;102771.13;;;14.83;99.79
20909;BME280;10614;53.198;6.570;2022-08-06T07:34:04;102777.22;;;14.87;99.36
20909;BME280;10614;53.198;6.570;2022-08-06T07:36:06;102775.25;;;14.93;98.56
20909;BME280;10614;53.198;6.570;2022-08-06T07:38:08;102781.44;;;14.94;98.07
20909;BME280;10614;53.198;6.570;2022-08-06T07:40:14;102773.38;;;14.98;97.26
20909;BME280;10614;53.198;6.570;2022-08-06T07:42:17;102783.84;;;15.03;97.57
20909;BME280;10614;53.198;6.570;2022-08-06T07:44:20;102786.38;;;15.08;97.63
20909;BME280;10614;53.198;6.570;2022-08-06T07:46:25;102786.22;;;15.12;97.39
20909;BME280;10614;53.198;6.570;2022-08-06T07:48:27;102786.03;;;15.20;96.16
20909;BME280;10614;53.198;6.570;2022-08-06T07:50:29;102784.00;;;15.28;92.85
20909;BME280;10614;53.198;6.570;2022-08-06T07:52:32;102785.66;;;15.32;93.00
20909;BME280;10614;53.198;6.570;2022-08-06T07:54:34;102790.84;;;15.37;92.24
20909;BME280;10614;53.198;6.570;2022-08-06T07:56:37;102786.09;;;15.48;92.34
20909;BME280;10614;53.198;6.570;2022-08-06T07:58:41;102785.84;;;15.56;90.75
20909;BME280;10614;53.198;6.570;2022-08-06T08:00:43;102785.63;;;15.63;87.32
20909;BME280;10614;53.198;6.570;2022-08-06T08:02:46;102791.72;;;15.67;87.12
20909;BME280;10614;53.198;6.570;2022-08-06T08:05:02;102786.31;;;15.72;87.28
20909;BME280;10614;53.198;6.570;2022-08-06T08:07:22;102793.91;;;15.82;85.06
20909;BME280;10614;53.198;6.570;2022-08-06T08:09:24;102797.22;;;15.91;84.30
20909;BME280;10614;53.198;6.570;2022-08-06T08:11:27;102793.56;;;15.95;83.41
20909;BME280;10614;53.198;6.570;2022-08-06T08:13:28;102788.09;;;15.99;84.26
20909;BME280;10614;53.198;6.570;2022-08-06T08:15:31;102791.50;;;16.03;83.03
20909;BME280;10614;53.198;6.570;2022-08-06T08:17:33;102797.53;;;16.08;83.02
20909;BME280;10614;53.198;6.570;2022-08-06T08:19:36;102805.31;;;16.14;79.60
20909;BME280;10614;53.198;6.570;2022-08-06T08:21:38;102799.00;;;16.18;77.73
20909;BME280;10614;53.198;6.570;2022-08-06T08:23:39;102806.91;;;16.20;77.25
20909;BME280;10614;53.198;6.570;2022-08-06T08:25:41;102805.06;;;16.22;75.91
20909;BME280;10614;53.198;6.570;2022-08-06T08:27:43;102806.72;;;16.26;76.37
20909;BME280;10614;53.198;6.570;2022-08-06T08:29:44;102806.59;;;16.29;76.02
20909;BME280;10614;53.198;6.570;2022-08-06T08:31:46;102809.50;;;16.48;76.77
20909;BME280;10614;53.198;6.570;2022-08-06T08:33:47;102808.34;;;16.57;76.60
20909;BME280;10614;53.198;6.570;2022-08-06T08:35:50;102813.63;;;16.58;76.13
20909;BME280;10614;53.198;6.570;2022-08-06T08:37:52;102817.97;;;16.61;74.51
20909;BME280;10614;53.198;6.570;2022-08-06T08:39:54;102812.38;;;16.68;67.45
20909;BME280;10614;53.198;6.570;2022-08-06T08:41:57;102818.66;;;16.66;68.86
20909;BME280;10614;53.198;6.570;2022-08-06T08:44:02;102824.09;;;16.63;69.97
20909;BME280;10614;53.198;6.570;2022-08-06T08:46:04;102818.78;;;16.63;69.46
20909;BME280;10614;53.198;6.570;2022-08-06T08:48:08;102819.66;;;16.63;69.47
20909;BME280;10614;53.198;6.570;2022-08-06T08:50:12;102835.44;;;16.68;71.71
20909;BME280;10614;53.198;6.570;2022-08-06T08:52:15;102834.63;;;16.66;75.43
20909;BME280;10614;53.198;6.570;2022-08-06T08:54:20;102836.63;;;16.59;78.06
20909;BME280;10614;53.198;6.570;2022-08-06T08:56:22;102840.25;;;16.57;80.41
20909;BME280;10614;53.198;6.570;2022-08-06T08:58:23;102841.38;;;16.50;82.01
20909;BME280;10614;53.198;6.570;2022-08-06T09:00:25;102838.03;;;16.43;84.12
20909;BME280;10614;53.198;6.570;2022-08-06T09:02:27;102842.50;;;16.42;84.13
20909;BME280;10614;53.198;6.570;2022-08-06T09:04:30;102848.81;;;16.38;85.71
20909;BME280;10614;53.198;6.570;2022-08-06T09:06:33;102838.97;;;16.42;86.20
20909;BME280;10614;53.198;6.570;2022-08-06T09:08:36;102836.50;;;16.36;86.29
20909;BME280;10614;53.198;6.570;2022-08-06T09:10:38;102840.28;;;16.29;86.78
20909;BME280;10614;53.198;6.570;2022-08-06T09:12:40;102849.94;;;16.31;87.32
20909;BME280;10614;53.198;6.570;2022-08-06T09:14:41;102840.13;;;16.33;86.30
20909;BME280;10614;53.198;6.570;2022-08-06T09:16:43;102841.97;;;16.31;87.43
20909;BME280;10614;53.198;6.570;2022-08-06T09:18:45;102842.91;;;16.30;86.79
20909;BME280;10614;53.198;6.570;2022-08-06T09:20:46;102852.56;;;16.33;87.79
20909;BME280;10614;53.198;6.570;2022-08-06T09:22:48;102843.66;;;16.34;88.06
20909;BME280;10614;53.198;6.570;2022-08-06T09:24:52;102846.38;;;16.32;87.43
20909;BME280;10614;53.198;6.570;2022-08-06T09:27:03;102849.03;;;16.32;88.06
20909;BME280;10614;53.198;6.570;2022-08-06T09:29:14;102848.78;;;16.40;87.95
20909;BME280;10614;53.198;6.570;2022-08-06T09:31:20;102844.22;;;16.43;86.46
20909;BME280;10614;53.198;6.570;2022-08-06T09:33:22;102846.03;;;16.43;86.17
20909;BME280;10614;53.198;6.570;2022-08-06T09:35:24;102847.72;;;16.45;85.73
20909;BME280;10614;53.198;6.570;2022-08-06T09:37:26;102853.84;;;16.48;84.93
20909;BME280;10614;53.198;6.570;2022-08-06T09:39:31;102847.56;;;16.50;84.38
20909;BME280;10614;53.198;6.570;2022-08-06T09:41:44;102849.06;;;16.59;83.63
20909;BME280;10614;53.198;6.570;2022-08-06T09:43:46;102855.91;;;16.66;82.23
20909;BME280;10614;53.198;6.570;2022-08-06T09:45:48;102844.84;;;16.78;77.53
20909;BME280;10614;53.198;6.570;2022-08-06T09:47:59;102852.75;;;16.81;76.63
20909;BME280;10614;53.198;6.570;2022-08-06T09:50:01;102848.81;;;16.93;68.23
20909;BME280;10614;53.198;6.570;2022-08-06T09:52:13;102852.38;;;16.92;69.13
20909;BME280;10614;53.198;6.570;2022-08-06T09:54:15;102855.81;;;16.96;67.39
20909;BME280;10614;53.198;6.570;2022-08-06T09:56:17;102853.03;;;16.99;66.97
20909;BME280;10614;53.198;6.570;2022-08-06T09:58:27;102859.19;;;17.01;65.94
20909;BME280;10614;53.198;6.570;2022-08-06T10:00:29;102856.34;;;17.05;66.32
20909;BME280;10614;53.198;6.570;2022-08-06T10:02:32;102859.22;;;17.24;62.60
20909;BME280;10614;53.198;6.570;2022-08-06T10:04:34;102868.69;;;17.33;63.93
20909;BME280;10614;53.198;6.570;2022-08-06T10:06:35;102865.84;;;17.38;64.48
20909;BME280;10614;53.198;6.570;2022-08-06T10:09:04;102858.72;;;17.38;65.12
20909;BME280;10614;53.198;6.570;2022-08-06T10:11:06;102860.19;;;17.47;64.20
20909;BME280;10614;53.198;6.570;2022-08-06T10:13:12;102860.94;;;17.50;61.23
20909;BME280;10614;53.198;6.570;2022-08-06T10:15:17;102853.94;;;17.48;61.63
20909;BME280;10614;53.198;6.570;2022-08-06T10:17:28;102862.84;;;17.47;62.11
20909;BME280;10614;53.198;6.570;2022-08-06T10:19:30;102864.63;;;17.46;63.57
20909;BME280;10614;53.198;6.570;2022-08-06T10:21:32;102863.56;;;17.52;64.02
20909;BME280;10614;53.198;6.570;2022-08-06T10:23:35;102862.53;;;17.56;64.33
20909;BME280;10614;53.198;6.570;2022-08-06T10:25:37;102856.94;;;17.62;61.44
20909;BME280;10614;53.198;6.570;2022-08-06T10:27:39;102868.09;;;17.72;58.64
20909;BME280;10614;53.198;6.570;2022-08-06T10:29:41;102868.09;;;17.72;58.35
20909;BME280;10614;53.198;6.570;2022-08-06T10:31:44;102864.66;;;17.70;58.43
20909;BME280;10614;53.198;6.570;2022-08-06T10:33:47;102867.13;;;17.75;57.23
20909;BME280;10614;53.198;6.570;2022-08-06T10:35:50;102866.63;;;17.88;54.77
20909;BME280;10614;53.198;6.570;2022-08-06T10:37:54;102866.53;;;17.91;54.29
20909;BME280;10614;53.198;6.570;2022-08-06T10:39:58;102862.97;;;17.91;55.12
20909;BME280;10614;53.198;6.570;2022-08-06T10:42:00;102853.09;;;17.95;55.80
20909;BME280;10614;53.198;6.570;2022-08-06T10:44:03;102857.41;;;17.97;56.49
20909;BME280;10614;53.198;6.570;2022-08-06T10:46:05;102854.44;;;18.05;57.01